Time;durP1;ratioP1;P1;durP2;ratioP2;P2;SDS_P1;SDS_P2;PMS_P1;PMS_P2;Temp;Humidity;BMP_temperature;BMP_pressure;BME280_temperature;BME280_humidity;BME280_pressure;Samples;Min_cycle;Max_cycle;Signal;HPM_P1;HPM_P2
2022/04/15 00:00:36;;;;;;;10.37;6.80;;;8.20;1.00;;;;;;5026825;28;20209;-51
2022/04/15 00:03:02;;;;;;;14.40;7.27;;;8.20;1.00;;;;;;5032910;28;20498;-51
2022/04/15 00:05:37;;;;;;;12.00;7.90;;;8.20;1.00;;;;;;5024324;28;20465;-51
2022/04/15 00:08:10;;;;;;;10.90;7.43;;;8.20;1.00;;;;;;5030891;28;21036;-50
2022/04/15 00:10:39;;;;;;;14.43;8.40;;;8.20;1.00;;;;;;5030213;28;20886;-51
2022/04/15 00:13:06;;;;;;;15.40;8.17;;;8.20;1.00;;;;;;5030304;28;20472;-51
2022/04/15 00:15:33;;;;;;;19.07;8.90;;;8.20;1.00;;;;;;5031369;28;20448;-55
2022/04/15 00:17:59;;;;;;;12.30;7.73;;;8.20;1.00;;;;;;5030900;28;20442;-51
2022/04/15 00:20:26;;;;;;;20.93;9.43;;;8.20;1.00;;;;;;5031565;28;20859;-51
2022/04/15 00:22:53;;;;;;;13.20;8.27;;;8.20;2.90;;;;;;5036393;28;20509;-51
2022/04/15 00:25:19;;;;;;;12.53;8.40;;;8.30;1.00;;;;;;5013836;28;20434;-51
2022/04/15 00:27:45;;;;;;;15.10;8.27;;;8.20;37.20;;;;;;5031363;28;20425;-51
2022/04/15 00:30:12;;;;;;;10.97;7.20;;;8.30;59.50;;;;;;5024902;28;20515;-55
2022/04/15 00:32:39;;;;;;;12.10;7.30;;;8.20;65.90;;;;;;5032191;28;20506;-51
2022/04/15 00:35:05;;;;;;;15.07;8.10;;;8.20;56.80;;;;;;5031772;28;20442;-51
2022/04/15 00:37:31;;;;;;;13.20;8.13;;;8.20;45.50;;;;;;5031505;28;20899;-51
2022/04/15 00:39:57;;;;;;;13.83;8.40;;;8.20;78.60;;;;;;5026523;28;20504;-51
2022/04/15 00:42:23;;;;;;;12.50;7.33;;;8.20;99.90;;;;;;5031422;28;20195;-51
2022/04/15 00:44:56;;;;;;;14.37;7.73;;;8.20;93.30;;;;;;5031106;28;20468;-51
2022/04/15 00:47:52;;;;;;;17.40;7.93;;;8.20;74.10;;;;;;5011997;28;20952;-51
2022/04/15 00:50:23;;;;;;;13.07;6.43;;;8.10;82.80;;;;;;5028080;28;20653;-51
2022/04/15 00:52:50;;;;;;;13.10;7.43;;;8.10;99.90;;;;;;5030839;28;20437;-51
2022/04/15 00:55:18;;;;;;;12.20;7.03;;;8.10;99.90;;;;;;5030747;28;20452;-51
2022/04/15 00:57:49;;;;;;;13.73;7.60;;;8.10;82.30;;;;;;5031436;28;20455;-51
2022/04/15 01:00:15;;;;;;;11.57;6.20;;;8.10;21.80;;;;;;5030440;28;20567;-52
2022/04/15 01:02:42;;;;;;;10.60;6.70;;;8.20;33.70;;;;;;5030507;28;20483;-51
2022/04/15 01:05:09;;;;;;;8.40;6.30;;;8.10;8.10;;;;;;5030638;28;20916;-51
2022/04/15 01:07:50;;;;;;;12.27;5.97;;;8.10;34.30;;;;;;5030689;28;20445;-51
2022/04/15 01:10:18;;;;;;;12.97;6.67;;;8.10;55.90;;;;;;5027135;28;20429;-51
2022/04/15 01:12:53;;;;;;;9.73;5.87;;;8.10;31.30;;;;;;5013011;28;21311;-51
2022/04/15 01:15:20;;;;;;;9.83;7.13;;;8.10;82.60;;;;;;5031015;28;20902;-51
2022/04/15 01:17:45;;;;;;;10.27;7.00;;;8.10;55.10;;;;;;5031119;28;20970;-52
2022/04/15 01:20:12;;;;;;;14.33;6.20;;;8.10;73.40;;;;;;5029224;28;20477;-52
2022/04/15 01:22:38;;;;;;;9.83;6.20;;;8.10;39.30;;;;;;5030653;28;20191;-51
2022/04/15 01:25:08;;;;;;;11.73;6.97;;;8.10;20.50;;;;;;5030819;28;20437;-51
2022/04/15 01:27:35;;;;;;;12.83;6.90;;;8.10;67.30;;;;;;5030713;28;20436;-51
2022/04/15 01:30:02;;;;;;;16.13;7.20;;;8.10;11.90;;;;;;5030529;28;20438;-51
2022/04/15 01:32:28;;;;;;;16.13;7.80;;;8.10;75.80;;;;;;5030172;28;20520;-51
2022/04/15 01:34:53;;;;;;;13.00;7.07;;;8.10;39.20;;;;;;5030231;28;20862;-51
2022/04/15 01:37:21;;;;;;;10.47;6.90;;;8.10;89.90;;;;;;5030717;28;20187;-51
2022/04/15 01:39:47;;;;;;;15.30;7.10;;;8.10;76.50;;;;;;5030252;28;20214;-51
2022/04/15 01:42:14;;;;;;;11.10;6.60;;;8.10;97.70;;;;;;5030366;28;20426;-51
2022/04/15 01:44:43;;;;;;;13.40;6.40;;;8.10;99.90;;;;;;5030317;28;20540;-51
2022/04/15 01:47:10;;;;;;;13.17;7.40;;;8.10;58.60;;;;;;5030789;28;20821;-51
2022/04/15 01:49:35;;;;;;;12.40;7.10;;;8.10;97.30;;;;;;5030076;28;20499;-51
2022/04/15 01:52:01;;;;;;;13.97;8.63;;;8.10;99.90;;;;;;5029722;28;20437;-51
2022/04/15 01:54:30;;;;;;;14.87;9.60;;;8.00;99.90;;;;;;5019442;28;20204;-51
2022/04/15 01:56:56;;;;;;;16.97;9.17;;;8.10;97.60;;;;;;5030579;28;20194;-51
2022/04/15 01:59:22;;;;;;;19.97;9.37;;;8.10;99.90;;;;;;5030170;28;20449;-51
2022/04/15 02:01:49;;;;;;;21.37;10.47;;;8.10;99.90;;;;;;5029897;28;20441;-51
2022/04/15 02:04:14;;;;;;;18.57;11.43;;;8.20;99.90;;;;;;5030299;28;20432;-51
2022/04/15 02:06:40;;;;;;;23.90;11.70;;;8.10;99.90;;;;;;5030008;28;20437;-51
2022/04/15 02:09:06;;;;;;;23.47;10.90;;;8.10;99.90;;;;;;5030179;28;20230;-51
2022/04/15 02:11:32;;;;;;;18.80;11.17;;;8.10;99.90;;;;;;5011755;28;20202;-51
2022/04/15 02:13:58;;;;;;;19.80;11.63;;;8.10;99.90;;;;;;5022965;28;20203;-51
2022/04/15 02:16:23;;;;;;;26.13;12.13;;;8.10;99.90;;;;;;5029714;28;20442;-51
2022/04/15 02:18:48;;;;;;;24.23;11.57;;;8.10;99.90;;;;;;5032173;28;20248;-52
2022/04/15 02:21:14;;;;;;;19.93;11.70;;;8.10;99.90;;;;;;5029373;28;20209;-51
2022/04/15 02:23:40;;;;;;;19.77;11.50;;;8.00;99.90;;;;;;5029338;28;20676;-54
2022/04/15 02:26:05;;;;;;;21.03;12.10;;;8.00;99.90;;;;;;5029485;28;20183;-51
2022/04/15 02:28:31;;;;;;;21.30;11.10;;;8.00;1.00;;;;;;5029543;28;20187;-51
2022/04/15 02:30:56;;;;;;;23.97;11.23;;;8.00;1.00;;;;;;5029170;28;20179;-51
2022/04/15 02:33:22;;;;;;;18.83;10.63;;;8.00;1.00;;;;;;5029867;28;20204;-51
2022/04/15 02:35:48;;;;;;;19.77;10.93;;;8.00;1.00;;;;;;5028879;28;20672;-52
2022/04/15 02:38:13;;;;;;;19.70;10.30;;;8.00;1.00;;;;;;5029616;28;20637;-51
2022/04/15 02:40:39;;;;;;;16.23;9.90;;;8.00;1.00;;;;;;5028587;28;20523;-51
2022/04/15 02:43:06;;;;;;;15.57;9.40;;;8.00;1.00;;;;;;5029642;28;20253;-51
2022/04/15 02:45:32;;;;;;;18.73;9.40;;;8.00;1.00;;;;;;5028779;28;20442;-51
2022/04/15 02:47:58;;;;;;;13.37;8.30;;;8.00;99.90;;;;;;5028924;28;20469;-51
2022/04/15 02:50:24;;;;;;;16.77;9.10;;;7.90;99.90;;;;;;5029280;28;20438;-51
2022/04/15 02:52:50;;;;;;;21.60;8.07;;;7.90;1.00;;;;;;5033007;28;20183;-51
2022/04/15 02:55:15;;;;;;;13.47;8.30;;;7.90;99.90;;;;;;5032907;28;20441;-53
2022/04/15 02:57:41;;;;;;;14.47;7.63;;;8.00;1.00;;;;;;5032715;28;20429;-51
2022/04/15 03:00:08;;;;;;;16.83;9.80;;;7.90;1.00;;;;;;5032703;28;20233;-51
2022/04/15 03:02:34;;;;;;;23.00;10.10;;;7.90;99.90;;;;;;5033060;28;20637;-51
2022/04/15 03:05:00;;;;;;;22.27;9.73;;;7.90;1.00;;;;;;5032796;28;20426;-51
2022/04/15 03:07:26;;;;;;;16.50;9.77;;;7.90;1.00;;;;;;5032972;28;20521;-51
2022/04/15 03:09:51;;;;;;;13.70;9.80;;;7.90;1.00;;;;;;5025314;28;20544;-51
2022/04/15 03:12:17;;;;;;;17.13;10.47;;;7.90;1.00;;;;;;5045776;28;20262;-51
2022/04/15 03:14:43;;;;;;;13.10;10.10;;;7.90;1.00;;;;;;5030687;28;20199;-51
2022/04/15 03:17:09;;;;;;;17.57;10.97;;;7.90;1.00;;;;;;5014834;28;20191;-52
2022/04/15 03:19:35;;;;;;;19.40;11.47;;;7.90;1.00;;;;;;5031283;28;20449;-52
2022/04/15 03:22:00;;;;;;;17.70;10.80;;;7.90;1.00;;;;;;5032889;28;20922;-51
2022/04/15 03:24:26;;;;;;;18.07;10.17;;;7.80;1.00;;;;;;5032480;28;20187;-51
2022/04/15 03:26:51;;;;;;;17.93;11.50;;;7.80;1.00;;;;;;5032359;28;20187;-51
2022/04/15 03:29:17;;;;;;;22.13;11.43;;;7.80;1.00;;;;;;5032952;28;20225;-51
2022/04/15 03:31:42;;;;;;;16.80;11.40;;;7.90;1.00;;;;;;5031570;28;20279;-51
2022/04/15 03:34:08;;;;;;;19.97;10.97;;;7.80;1.00;;;;;;5032549;28;20214;-51
2022/04/15 03:36:33;;;;;;;15.67;10.40;;;7.90;99.90;;;;;;5032347;28;20187;-51
2022/04/15 03:38:59;;;;;;;24.73;11.43;;;7.90;1.00;;;;;;5031283;28;20234;-52
2022/04/15 03:41:25;;;;;;;20.77;12.30;;;7.90;11.00;;;;;;5032012;28;20551;-51
2022/04/15 03:43:50;;;;;;;20.37;11.30;;;7.90;10.40;;;;;;5030678;28;20183;-52
2022/04/15 03:46:16;;;;;;;22.03;12.37;;;7.90;83.60;;;;;;5032107;28;20729;-51
2022/04/15 03:48:42;;;;;;;22.37;13.10;;;7.90;1.00;;;;;;5031675;28;20235;-52
2022/04/15 03:51:08;;;;;;;23.20;13.03;;;7.90;99.90;;;;;;5031200;28;20437;-51
2022/04/15 03:53:35;;;;;;;24.10;13.20;;;7.90;99.90;;;;;;5031499;28;20656;-52
2022/04/15 03:56:00;;;;;;;24.33;13.70;;;7.80;99.90;;;;;;5031836;28;20421;-51
2022/04/15 03:58:26;;;;;;;23.73;14.03;;;7.80;1.00;;;;;;5031504;28;20430;-52
2022/04/15 04:00:52;;;;;;;29.70;16.30;;;7.80;1.00;;;;;;5031739;28;20202;-52
2022/04/15 04:03:18;;;;;;;34.07;16.10;;;7.80;1.00;;;;;;5031184;28;20934;-52
2022/04/15 04:05:44;;;;;;;38.13;18.40;;;7.80;1.00;;;;;;5031482;28;20426;-51
2022/04/15 04:08:10;;;;;;;32.37;16.80;;;7.80;99.40;;;;;;5031458;28;20187;-51
2022/04/15 04:10:36;;;;;;;38.73;18.87;;;7.80;1.00;;;;;;5031220;28;20179;-52
2022/04/15 04:13:03;;;;;;;38.53;19.27;;;7.80;1.00;;;;;;5031279;28;20425;-52
2022/04/15 04:15:29;;;;;;;37.80;19.70;;;7.80;1.00;;;;;;5032565;28;20194;-51
2022/04/15 04:17:56;;;;;;;39.97;21.67;;;7.80;1.00;;;;;;5031466;28;20487;-52
2022/04/15 04:20:22;;;;;;;34.90;20.03;;;7.80;1.00;;;;;;5031851;28;20461;-51
2022/04/15 04:22:48;;;;;;;46.80;23.20;;;7.80;99.90;;;;;;5023461;28;20464;-52
2022/04/15 04:25:13;;;;;;;43.77;21.60;;;7.80;1.00;;;;;;5034830;28;20430;-52
2022/04/15 04:27:40;;;;;;;47.00;22.47;;;7.80;99.90;;;;;;5031504;28;20494;-54
2022/04/15 04:30:07;;;;;;;44.97;22.13;;;7.80;99.90;;;;;;5031756;28;20265;-52
2022/04/15 04:32:33;;;;;;;44.87;23.83;;;7.90;68.90;;;;;;5031996;28;20461;-51
2022/04/15 04:34:58;;;;;;;42.63;23.20;;;7.90;99.90;;;;;;5030552;28;20466;-51
2022/04/15 04:37:24;;;;;;;53.10;23.93;;;7.90;99.90;;;;;;5030458;28;20214;-52
2022/04/15 04:39:50;;;;;;;52.40;23.27;;;7.90;1.00;;;;;;5030615;28;20214;-51
2022/04/15 04:42:18;;;;;;;43.40;23.87;;;7.90;99.90;;;;;;5031355;28;20194;-51
2022/04/15 04:44:44;;;;;;;44.07;23.10;;;7.90;1.80;;;;;;5031237;28;20465;-51
2022/04/15 04:47:10;;;;;;;45.23;25.10;;;7.90;1.00;;;;;;5031082;28;20418;-51
2022/04/15 04:49:36;;;;;;;44.57;21.73;;;7.90;1.00;;;;;;5029941;28;20505;-52
2022/04/15 04:52:04;;;;;;;45.57;20.90;;;7.90;99.90;;;;;;5030674;28;20422;-51
2022/04/15 04:54:30;;;;;;;41.10;22.40;;;8.00;99.90;;;;;;5031411;28;20828;-51
2022/04/15 04:56:56;;;;;;;38.30;20.87;;;8.00;1.00;;;;;;5031063;28;20437;-51
2022/04/15 04:59:32;;;;;;;37.33;19.00;;;8.00;1.00;;;;;;5029634;28;20441;-51
2022/04/15 05:01:58;;;;;;;35.97;18.77;;;8.00;99.90;;;;;;5030446;28;20167;-52
2022/04/15 05:04:24;;;;;;;36.43;19.80;;;8.00;99.90;;;;;;5030681;28;20469;-52
2022/04/15 05:06:51;;;;;;;37.60;19.77;;;8.10;1.00;;;;;;5031334;28;20897;-51
2022/04/15 05:09:17;;;;;;;40.73;18.37;;;8.00;1.00;;;;;;5013106;28;20516;-51
2022/04/15 05:11:43;;;;;;;39.60;20.93;;;8.10;1.00;;;;;;5030905;28;20983;-51
2022/04/15 05:14:08;;;;;;;45.00;19.50;;;8.00;1.00;;;;;;5030425;28;20183;-52
2022/04/15 05:16:34;;;;;;;44.90;18.67;;;8.10;1.00;;;;;;5030020;28;20229;-51
2022/04/15 05:19:00;;;;;;;46.67;21.63;;;8.10;1.00;;;;;;5012372;28;20676;-52
2022/04/15 05:21:25;;;;;;;40.33;19.27;;;8.10;1.00;;;;;;5030579;28;20297;-51
2022/04/15 05:23:51;;;;;;;46.20;21.30;;;8.00;89.00;;;;;;5030222;28;20572;-51
2022/04/15 05:26:16;;;;;;;38.40;19.30;;;8.10;24.80;;;;;;5030940;28;20191;-51
2022/04/15 05:28:42;;;;;;;37.83;19.13;;;8.10;18.80;;;;;;5029870;28;20175;-51
2022/04/15 05:31:09;;;;;;;45.00;21.43;;;8.10;1.00;;;;;;5030107;28;20652;-52
2022/04/15 05:33:35;;;;;;;48.07;21.77;;;8.10;1.00;;;;;;5030232;28;20186;-52
2022/04/15 05:36:00;;;;;;;50.87;21.97;;;8.10;92.40;;;;;;5031070;28;20509;-52
2022/04/15 05:38:26;;;;;;;52.80;23.80;;;8.10;99.90;;;;;;5030746;28;20903;-51
2022/04/15 05:40:52;;;;;;;56.77;22.23;;;8.20;99.90;;;;;;5027088;28;20230;-49
2022/04/15 05:43:17;;;;;;;55.03;24.57;;;8.20;50.90;;;;;;5044025;28;21184;-49
2022/04/15 05:45:43;;;;;;;48.77;21.07;;;8.20;69.90;;;;;;5030850;28;20260;-50
2022/04/15 05:48:09;;;;;;;49.47;23.20;;;8.20;99.90;;;;;;5018494;28;20237;-49
2022/04/15 05:50:34;;;;;;;63.70;24.63;;;8.30;93.70;;;;;;5033457;28;20187;-50
2022/04/15 05:53:00;;;;;;;55.40;23.67;;;8.30;1.00;;;;;;5029779;28;20199;-50
2022/04/15 05:55:26;;;;;;;59.10;25.17;;;8.20;99.90;;;;;;5029990;28;20669;-49
2022/04/15 05:57:51;;;;;;;65.83;26.50;;;8.30;99.90;;;;;;5030212;28;20176;-50
2022/04/15 06:00:17;;;;;;;58.63;25.63;;;8.30;1.00;;;;;;5028813;28;20657;-50
2022/04/15 06:02:43;;;;;;;56.10;27.07;;;8.30;99.90;;;;;;5029579;28;20179;-50
2022/04/15 06:05:08;;;;;;;64.60;27.40;;;8.40;1.00;;;;;;5029750;28;20218;-50
2022/04/15 06:07:35;;;;;;;55.30;24.90;;;8.40;1.00;;;;;;5029785;28;20186;-50
2022/04/15 06:10:01;;;;;;;56.73;24.70;;;8.50;99.90;;;;;;5013298;28;20171;-49
2022/04/15 06:15:20;;;;;;;54.70;22.50;;;8.50;99.90;;;;;;5025947;28;20433;-50
2022/04/15 06:17:46;;;;;;;70.70;26.70;;;8.50;1.00;;;;;;5028994;28;20924;-50
2022/04/15 06:20:11;;;;;;;54.90;23.33;;;8.60;1.00;;;;;;5027313;28;20453;-50
2022/04/15 06:22:38;;;;;;;50.47;21.67;;;8.50;99.90;;;;;;5012022;28;20171;-50
2022/04/15 06:25:03;;;;;;;53.50;23.03;;;8.50;99.90;;;;;;5030371;28;20163;-50
2022/04/15 06:27:29;;;;;;;44.60;21.30;;;8.60;99.90;;;;;;5032549;28;20458;-50
2022/04/15 06:29:54;;;;;;;52.07;22.40;;;8.60;99.90;;;;;;5033727;28;20218;-49
2022/04/15 06:32:20;;;;;;;53.37;22.00;;;8.70;99.90;;;;;;5033556;28;20632;-50
2022/04/15 06:34:45;;;;;;;49.23;23.00;;;8.60;99.90;;;;;;5034094;28;20190;-50
2022/04/15 06:37:11;;;;;;;55.10;22.33;;;8.60;99.90;;;;;;5034264;28;20194;-50
2022/04/15 06:39:36;;;;;;;50.10;20.23;;;8.70;1.00;;;;;;5033504;28;20203;-50
2022/04/15 06:42:02;;;;;;;46.40;21.07;;;8.70;99.90;;;;;;5033812;28;20555;-50
2022/04/15 06:44:28;;;;;;;49.90;20.80;;;8.80;99.90;;;;;;5033230;28;20190;-53
2022/04/15 06:46:54;;;;;;;41.23;20.50;;;8.80;99.90;;;;;;5015719;28;20225;-50
2022/04/15 06:49:20;;;;;;;52.93;21.27;;;8.90;1.00;;;;;;5032877;28;20306;-49
2022/04/15 06:51:45;;;;;;;52.83;20.33;;;8.90;1.00;;;;;;5034568;28;20437;-50
2022/04/15 06:54:11;;;;;;;48.90;21.13;;;8.90;1.00;;;;;;5024438;28;20270;-50
2022/04/15 06:56:36;;;;;;;47.67;21.00;;;8.90;1.00;;;;;;5034240;28;20552;-49
2022/04/15 06:59:02;;;;;;;46.83;20.27;;;8.80;1.00;;;;;;5033284;28;20187;-50
2022/04/15 07:01:29;;;;;;;38.90;20.17;;;8.90;69.40;;;;;;5010796;28;20215;-50
2022/04/15 07:03:54;;;;;;;43.70;19.50;;;8.90;1.00;;;;;;5031864;28;20171;-50
2022/04/15 07:06:20;;;;;;;46.80;19.73;;;8.90;1.00;;;;;;5033740;28;20436;-50
2022/04/15 07:08:45;;;;;;;46.60;19.40;;;8.90;73.20;;;;;;5019904;28;20175;-50
2022/04/15 07:11:12;;;;;;;43.20;19.90;;;8.90;1.00;;;;;;5034071;28;20245;-51
2022/04/15 07:13:38;;;;;;;41.17;20.57;;;9.00;1.00;;;;;;5032920;28;20191;-50
2022/04/15 07:16:04;;;;;;;46.60;20.10;;;9.00;1.00;;;;;;5034468;28;20455;-50
2022/04/15 07:18:29;;;;;;;43.40;18.93;;;9.00;1.00;;;;;;5033063;28;20200;-50
2022/04/15 07:20:55;;;;;;;43.27;19.90;;;9.00;1.00;;;;;;5033106;28;20206;-51
2022/04/15 07:23:20;;;;;;;38.50;19.03;;;9.00;1.00;;;;;;5032293;28;20270;-50
2022/04/15 07:26:03;;;;;;;38.10;19.13;;;9.10;1.00;;;;;;5031567;28;20193;-50
2022/04/15 07:28:33;;;;;;;38.80;19.50;;;9.20;1.00;;;;;;5033349;28;20226;-50
2022/04/15 07:30:58;;;;;;;49.57;19.70;;;9.30;1.00;;;;;;5034506;28;20938;-50
2022/04/15 07:33:24;;;;;;;40.50;20.73;;;9.30;99.90;;;;;;5033360;28;20426;-50
2022/04/15 07:35:49;;;;;;;44.20;20.20;;;9.20;99.90;;;;;;5033601;28;20517;-51
2022/04/15 07:38:15;;;;;;;39.27;20.50;;;9.30;99.90;;;;;;5032007;28;20190;-50
2022/04/15 07:40:40;;;;;;;46.77;19.53;;;9.30;99.90;;;;;;5033751;28;20748;-50
2022/04/15 07:43:06;;;;;;;47.07;20.60;;;9.20;99.90;;;;;;5016377;28;20175;-50
2022/04/15 07:45:32;;;;;;;47.03;20.90;;;9.20;99.90;;;;;;5034293;28;20652;-50
2022/04/15 07:47:57;;;;;;;42.50;20.20;;;9.20;99.90;;;;;;5033851;28;20281;-50
2022/04/15 07:50:25;;;;;;;49.27;21.40;;;9.20;1.00;;;;;;5033271;28;20721;-50
2022/04/15 07:52:55;;;;;;;54.90;22.60;;;9.10;1.00;;;;;;5032080;28;20518;-50
2022/04/15 07:55:20;;;;;;;42.70;19.60;;;9.10;1.00;;;;;;5032452;28;20500;-50
2022/04/15 07:57:46;;;;;;;34.90;17.60;;;9.10;1.00;;;;;;5032574;28;20422;-50
2022/04/15 08:00:12;;;;;;;33.67;16.10;;;9.20;1.00;;;;;;5032421;28;20265;-50
2022/04/15 08:02:37;;;;;;;27.97;15.03;;;9.50;99.90;;;;;;5019738;28;20194;-50
2022/04/15 08:05:04;;;;;;;28.23;16.00;;;9.60;99.90;;;;;;5031100;28;20434;-49
2022/04/15 08:07:29;;;;;;;26.70;14.90;;;9.60;99.70;;;;;;5030727;28;20184;-50
2022/04/15 08:09:55;;;;;;;26.83;15.60;;;9.70;17.80;;;;;;5021787;28;20450;-50
2022/04/15 08:12:20;;;;;;;23.10;15.00;;;9.70;1.00;;;;;;5029539;28;20240;-49
2022/04/15 08:14:46;;;;;;;25.27;14.53;;;9.70;1.00;;;;;;5030831;28;20214;-49
2022/04/15 08:17:12;;;;;;;32.10;16.63;;;9.80;1.00;;;;;;5031477;28;20183;-49
2022/04/15 08:19:37;;;;;;;27.70;15.07;;;9.80;1.00;;;;;;5031028;28;20536;-50
2022/04/15 08:22:03;;;;;;;25.50;14.97;;;9.80;1.00;;;;;;5031782;28;20672;-49
2022/04/15 08:24:29;;;;;;;27.70;14.83;;;9.80;1.00;;;;;;5040273;28;20593;-49
2022/04/15 08:26:56;;;;;;;23.83;14.73;;;9.80;1.00;;;;;;5031029;28;20483;-49
2022/04/15 08:29:22;;;;;;;22.93;15.57;;;9.70;1.00;;;;;;5031889;28;20184;-50
2022/04/15 08:31:48;;;;;;;32.40;16.80;;;9.70;1.00;;;;;;5013364;28;20433;-49
2022/04/15 08:34:13;;;;;;;30.60;15.97;;;9.80;1.00;;;;;;5031128;28;20191;-50
2022/04/15 08:36:39;;;;;;;25.27;16.50;;;9.90;1.00;;;;;;5020817;28;20289;-49
2022/04/15 08:39:06;;;;;;;30.40;16.63;;;9.90;1.00;;;;;;5031506;28;20649;-50
2022/04/15 08:41:38;;;;;;;26.00;15.07;;;9.90;1.00;;;;;;5031335;28;20213;-50
2022/04/15 08:44:05;;;;;;;30.93;16.60;;;9.90;1.00;;;;;;5029331;28;20402;-49
2022/04/15 08:46:31;;;;;;;30.43;15.87;;;10.10;1.00;;;;;;5028765;28;20421;-50
2022/04/15 08:48:59;;;;;;;25.70;16.43;;;10.30;1.00;;;;;;5026926;28;20473;-50
2022/04/15 08:51:26;;;;;;;26.03;16.70;;;10.40;1.00;;;;;;5030335;28;20422;-49
2022/04/15 08:53:54;;;;;;;26.50;15.00;;;10.40;1.00;;;;;;5029508;28;20430;-49
2022/04/15 08:56:22;;;;;;;27.33;16.13;;;10.50;1.00;;;;;;5029630;28;20410;-49
2022/04/15 08:58:48;;;;;;;24.23;15.33;;;10.60;1.00;;;;;;5027654;28;20445;-49
2022/04/15 09:01:13;;;;;;;25.10;15.73;;;10.60;1.00;;;;;;5027857;28;20496;-49
2022/04/15 09:03:40;;;;;;;25.70;16.10;;;10.50;1.00;;;;;;5029611;28;20273;-49
2022/04/15 09:06:29;;;;;;;25.63;15.30;;;10.60;1.00;;;;;;5029916;28;20265;-49
2022/04/15 09:08:58;;;;;;;27.43;15.87;;;10.80;1.00;;;;;;5028655;28;20405;-49
2022/04/15 09:11:32;;;;;;;26.17;16.57;;;10.70;1.00;;;;;;5028957;28;20428;-49
2022/04/15 09:14:02;;;;;;;32.10;17.67;;;10.70;1.00;;;;;;5028508;28;20398;-50
2022/04/15 09:16:29;;;;;;;26.80;16.63;;;10.60;1.00;;;;;;5028796;28;20417;-49
2022/04/15 09:18:55;;;;;;;28.17;17.20;;;10.60;1.00;;;;;;5028966;28;20444;-49
2022/04/15 09:21:24;;;;;;;27.00;16.73;;;10.50;1.00;;;;;;5028554;28;20455;-49
2022/04/15 09:23:54;;;;;;;28.60;16.73;;;10.50;1.00;;;;;;5029253;28;20467;-49
2022/04/15 09:26:21;;;;;;;38.00;16.33;;;10.60;1.00;;;;;;5028910;28;20456;-49
2022/04/15 09:28:47;;;;;;;26.43;15.77;;;10.70;1.00;;;;;;5028276;28;20895;-49
2022/04/15 09:31:14;;;;;;;28.27;17.40;;;10.70;1.00;;;;;;5028743;28;20433;-49
2022/04/15 09:33:59;;;;;;;26.83;17.00;;;10.50;1.00;;;;;;5028733;28;20430;-49
2022/04/15 09:36:36;;;;;;;33.23;17.80;;;10.50;1.00;;;;;;5029935;28;20422;-49
2022/04/15 09:39:10;;;;;;;27.87;17.70;;;10.50;1.00;;;;;;5030984;28;20405;-49
2022/04/15 09:41:37;;;;;;;31.23;18.00;;;10.50;1.00;;;;;;5030055;28;20849;-49
2022/04/15 09:44:03;;;;;;;29.07;18.10;;;10.40;1.00;;;;;;5030545;28;20418;-49
2022/04/15 09:46:30;;;;;;;30.07;17.63;;;10.30;1.00;;;;;;5030907;28;20746;-50
2022/04/15 09:49:08;;;;;;;34.40;18.73;;;10.20;1.00;;;;;;5030392;28;20314;-49
2022/04/15 09:51:43;;;;;;;27.03;17.27;;;10.10;1.00;;;;;;5030827;28;20481;-58
2022/04/15 09:54:18;;;;;;;26.57;16.57;;;10.10;1.00;;;;;;5030328;28;20427;-50
2022/04/15 09:56:45;;;;;;;27.83;17.33;;;10.20;1.00;;;;;;5030288;28;20479;-49
2022/04/15 09:59:15;;;;;;;29.60;17.33;;;10.20;1.00;;;;;;5030437;28;20429;-49
2022/04/15 10:01:46;;;;;;;31.53;18.77;;;10.30;1.00;;;;;;5029755;28;20469;-49
2022/04/15 10:04:13;;;;;;;32.67;17.43;;;10.30;1.00;;;;;;5030443;28;20869;-49
2022/04/15 10:06:41;;;;;;;30.30;18.03;;;10.40;1.00;;;;;;5030361;28;20414;-50
2022/04/15 10:09:11;;;;;;;30.97;17.63;;;10.50;1.00;;;;;;5030285;28;20421;-49
2022/04/15 10:11:42;;;;;;;31.03;18.20;;;10.50;1.00;;;;;;5030742;28;20408;-49
2022/04/15 10:14:13;;;;;;;27.87;16.80;;;10.60;1.00;;;;;;5030056;28;20436;-49
2022/04/15 10:16:40;;;;;;;27.90;17.17;;;10.70;1.00;;;;;;5030151;28;20500;-49
2022/04/15 10:19:07;;;;;;;30.37;17.60;;;10.80;1.00;;;;;;5021346;28;20470;-50
2022/04/15 10:21:58;;;;;;;31.80;17.50;;;10.80;1.00;;;;;;5028700;28;20530;-49
2022/04/15 10:24:24;;;;;;;28.30;17.00;;;10.90;1.00;;;;;;5024140;28;20448;-49
2022/04/15 10:26:57;;;;;;;30.53;17.87;;;11.00;1.00;;;;;;5027615;28;20437;-49
2022/04/15 10:29:22;;;;;;;30.73;18.03;;;11.10;1.00;;;;;;5029663;28;20507;-49
2022/04/15 10:31:48;;;;;;;26.77;16.60;;;11.00;1.00;;;;;;5029352;28;20469;-49
2022/04/15 10:34:16;;;;;;;31.17;17.80;;;11.00;1.00;;;;;;5029635;28;20182;-49
2022/04/15 10:36:59;;;;;;;27.23;16.80;;;11.10;1.00;;;;;;5029084;28;20187;-49
2022/04/15 10:39:26;;;;;;;27.43;15.90;;;10.90;1.00;;;;;;5027338;28;20441;-49
2022/04/15 10:41:55;;;;;;;28.73;16.67;;;10.90;1.00;;;;;;5033796;28;20473;-49
2022/04/15 10:44:25;;;;;;;27.10;16.70;;;11.00;1.00;;;;;;5034170;28;20433;-49
2022/04/15 10:46:50;;;;;;;25.50;16.03;;;11.00;1.00;;;;;;5030730;28;21294;-49
2022/04/15 10:49:23;;;;;;;27.53;16.60;;;10.90;1.00;;;;;;5035584;28;20476;-49
2022/04/15 10:51:54;;;;;;;29.43;17.37;;;10.90;1.00;;;;;;5031267;28;20186;-49
2022/04/15 10:54:38;;;;;;;27.40;17.17;;;10.90;1.00;;;;;;5028305;28;20811;-49
2022/04/15 10:57:15;;;;;;;33.07;17.50;;;11.10;1.00;;;;;;5028445;28;20942;-49
2022/04/15 11:02:49;;;;;;;31.30;18.33;;;11.00;1.00;;;;;;5020307;28;20440;-49
2022/04/15 11:05:42;;;;;;;30.30;16.00;;;11.00;1.00;;;;;;5028748;28;20500;-49
2022/04/15 11:08:13;;;;;;;32.60;17.47;;;10.90;1.00;;;;;;5022615;28;20499;-49
2022/04/15 11:11:03;;;;;;;28.30;17.00;;;10.80;1.00;;;;;;5019496;28;20480;-49
2022/04/15 11:14:00;;;;;;;26.40;16.00;;;10.80;1.00;;;;;;5035106;28;20552;-49
2022/04/15 11:16:43;;;;;;;34.10;18.00;;;10.90;1.00;;;;;;5025880;28;20460;-49
2022/04/15 11:19:11;;;;;;;28.27;15.70;;;10.80;1.00;;;;;;5024567;28;20493;-49
2022/04/15 11:21:39;;;;;;;34.03;17.93;;;10.80;1.00;;;;;;5014770;28;20520;-49
2022/04/15 11:24:05;;;;;;;29.67;17.57;;;10.80;1.00;;;;;;5031548;28;20468;-49
2022/04/15 11:26:32;;;;;;;33.73;17.47;;;10.80;1.00;;;;;;5032694;28;20495;-49
2022/04/15 11:29:00;;;;;;;28.87;17.40;;;10.70;1.00;;;;;;5032624;28;20460;-49
2022/04/15 11:31:40;;;;;;;31.67;16.40;;;10.70;1.00;;;;;;5032904;28;20920;-50
2022/04/15 11:34:07;;;;;;;28.83;16.37;;;10.60;1.00;;;;;;5032450;28;20429;-55
2022/04/15 11:36:35;;;;;;;30.50;17.87;;;10.50;1.00;;;;;;5031864;28;20504;-49
2022/04/15 11:39:04;;;;;;;28.40;17.33;;;10.60;1.00;;;;;;5032420;28;20426;-49
2022/04/15 11:41:30;;;;;;;34.17;17.57;;;10.60;1.00;;;;;;5032960;28;20473;-49
2022/04/15 11:44:00;;;;;;;30.07;15.80;;;10.60;1.00;;;;;;5031441;28;20426;-49
2022/04/15 11:46:37;;;;;;;25.13;15.90;;;10.60;1.00;;;;;;5031886;28;20218;-50
2022/04/15 11:49:04;;;;;;;30.43;16.17;;;10.60;1.00;;;;;;5030858;28;20519;-49
2022/04/15 11:51:30;;;;;;;31.63;15.97;;;10.70;1.00;;;;;;5016439;28;20584;-49
2022/04/15 11:53:57;;;;;;;27.23;16.03;;;10.80;1.00;;;;;;5044675;28;20433;-50
2022/04/15 11:56:27;;;;;;;31.20;16.60;;;10.80;1.00;;;;;;5038748;28;20541;-50
2022/04/15 11:58:53;;;;;;;26.87;15.40;;;10.90;1.00;;;;;;5032532;28;20433;-50
2022/04/15 12:01:32;;;;;;;26.63;15.27;;;10.90;1.00;;;;;;5049126;28;20493;-50
2022/04/15 12:03:59;;;;;;;26.17;15.57;;;10.90;1.00;;;;;;5032335;28;20253;-50
2022/04/15 12:06:25;;;;;;;27.73;16.00;;;10.90;1.00;;;;;;5044338;28;20433;-50
2022/04/15 12:08:52;;;;;;;26.77;15.40;;;10.80;1.00;;;;;;5029924;28;20450;-50
2022/04/15 12:11:25;;;;;;;31.50;16.77;;;10.80;1.00;;;;;;5033364;28;20475;-50
2022/04/15 12:13:59;;;;;;;24.73;14.93;;;10.90;1.00;;;;;;5024026;28;20430;-50
2022/04/15 12:16:27;;;;;;;25.27;14.57;;;10.90;1.00;;;;;;5036184;28;20458;-50
2022/04/15 12:18:53;;;;;;;24.50;14.43;;;10.90;1.00;;;;;;5031391;28;20950;-50
2022/04/15 12:21:20;;;;;;;27.63;15.60;;;10.90;1.00;;;;;;5031231;28;20461;-50
2022/04/15 12:24:05;;;;;;;23.50;13.43;;;10.90;1.00;;;;;;5030249;28;20421;-50
2022/04/15 12:26:48;;;;;;;27.27;13.97;;;10.90;1.00;;;;;;5016253;28;20434;-50
2022/04/15 12:32:25;;;;;;;20.60;13.33;;;10.90;1.00;;;;;;5029559;28;20449;-49
2022/04/15 12:34:59;;;;;;;23.43;12.87;;;11.00;1.00;;;;;;5031101;28;20421;-49
2022/04/15 12:37:35;;;;;;;26.80;12.57;;;11.00;1.00;;;;;;5030680;28;20430;-49
2022/04/15 12:40:07;;;;;;;20.30;10.70;;;10.90;1.00;;;;;;5030008;28;20469;-49
2022/04/15 12:42:36;;;;;;;18.87;10.87;;;11.00;1.00;;;;;;5031213;28;20433;-49
2022/04/15 12:45:09;;;;;;;17.13;9.27;;;11.00;1.00;;;;;;5030900;28;20440;-49
2022/04/15 12:48:00;;;;;;;12.77;8.87;;;10.90;1.00;;;;;;5024898;28;20469;-49
2022/04/15 12:50:42;;;;;;;17.30;9.90;;;10.90;1.00;;;;;;5031181;28;20425;-49
2022/04/15 12:53:17;;;;;;;17.03;9.73;;;10.90;1.00;;;;;;5032637;28;20430;-49
2022/04/15 12:55:44;;;;;;;15.13;10.90;;;10.80;1.00;;;;;;5028871;28;20424;-50